createdAt,value
2024-01-15T00:00:18.825Z,33.33
2024-01-15T00:02:45.731Z,34.17
2024-01-15T00:05:12.576Z,33.33
2024-01-15T00:07:39.419Z,35.97
2024-01-15T00:10:06.888Z,35.63
2024-01-15T00:12:34.048Z,36.57
2024-01-15T00:15:00.923Z,35.43
2024-01-15T00:17:27.855Z,38.10
2024-01-15T00:19:54.625Z,34.70
2024-01-15T00:22:21.435Z,37.07
2024-01-15T00:24:48.203Z,34.93
2024-01-15T00:27:15.032Z,35.00
2024-01-15T00:29:42.107Z,35.63
2024-01-15T00:32:08.825Z,35.73
2024-01-15T00:34:35.703Z,35.23
2024-01-15T00:37:02.565Z,36.40
2024-01-15T00:39:29.262Z,35.47
2024-01-15T00:41:56.036Z,37.07
2024-01-15T00:44:22.781Z,35.90
2024-01-15T00:46:49.619Z,37.47
2024-01-15T00:49:16.666Z,32.87
2024-01-15T00:51:43.741Z,40.10
2024-01-15T00:54:10.723Z,30.50
2024-01-15T00:56:38.112Z,36.73
2024-01-15T00:59:04.929Z,35.83
2024-01-15T01:01:32.702Z,33.27
2024-01-15T01:03:59.650Z,36.40
2024-01-15T01:06:26.556Z,33.17
2024-01-15T01:08:53.305Z,31.83
2024-01-15T01:11:20.111Z,35.13
2024-01-15T01:13:46.788Z,35.23
2024-01-15T01:16:13.522Z,31.73
2024-01-15T01:18:40.631Z,35.73
2024-01-15T01:21:07.682Z,34.73
2024-01-15T01:23:34.425Z,35.33
2024-01-15T01:26:01.132Z,35.67
2024-01-15T01:28:28.669Z,32.07
2024-01-15T01:30:55.493Z,31.97
2024-01-15T01:33:22.306Z,31.27
2024-01-15T01:35:49.336Z,35.23
2024-01-15T01:38:16.557Z,30.47
2024-01-15T01:40:43.249Z,34.13
2024-01-15T01:43:11.362Z,36.23
2024-01-15T01:45:39.810Z,32.17
2024-01-15T01:48:07.014Z,30.37
2024-01-15T01:50:34.418Z,35.03
2024-01-15T01:53:03.104Z,35.50
2024-01-15T01:55:32.030Z,40.67
2024-01-15T01:57:58.903Z,32.53
2024-01-15T02:00:25.742Z,35.33
2024-01-15T02:02:52.499Z,33.80
2024-01-15T02:05:21.443Z,34.43
2024-01-15T02:07:48.346Z,33.67
2024-01-15T02:10:15.552Z,31.77
2024-01-15T02:12:44.433Z,35.77
2024-01-15T02:15:11.290Z,36.63
2024-01-15T02:17:58.813Z,37.07
2024-01-15T02:20:26.578Z,31.70
2024-01-15T02:22:53.331Z,39.33
2024-01-15T02:25:20.452Z,32.73
2024-01-15T02:27:48.209Z,38.10
2024-01-15T02:30:15.142Z,33.63
2024-01-15T02:32:42.110Z,36.53
2024-01-15T02:35:08.954Z,36.53
2024-01-15T02:37:36.741Z,34.93
2024-01-15T02:40:03.889Z,36.27
2024-01-15T02:42:30.571Z,34.97
2024-01-15T02:44:57.268Z,34.77
2024-01-15T02:47:23.928Z,33.50
2024-01-15T02:49:51.265Z,34.03
2024-01-15T02:52:18.364Z,32.30
2024-01-15T02:54:45.097Z,33.70
2024-01-15T02:57:11.917Z,32.30
2024-01-15T02:59:38.725Z,34.57
2024-01-15T03:02:05.455Z,29.17
2024-01-15T03:04:32.351Z,30.87
2024-01-15T03:06:59.243Z,32.67
2024-01-15T03:09:25.985Z,33.80
2024-01-15T03:11:52.656Z,30.60
2024-01-15T03:14:19.442Z,33.27
2024-01-15T03:16:46.169Z,31.30
2024-01-15T03:19:12.960Z,36.47
2024-01-15T03:21:39.789Z,38.27
2024-01-15T03:24:06.592Z,28.63
2024-01-15T03:26:33.309Z,29.30
2024-01-15T03:29:00.048Z,31.80
2024-01-15T03:31:26.813Z,35.20
2024-01-15T03:33:53.888Z,33.17
2024-01-15T03:36:20.716Z,32.03
2024-01-15T03:38:47.839Z,30.10
2024-01-15T03:41:14.669Z,35.03
2024-01-15T03:43:41.397Z,32.47
2024-01-15T03:46:08.848Z,30.83
2024-01-15T03:48:35.689Z,33.53
2024-01-15T03:51:02.481Z,33.13
2024-01-15T03:53:29.253Z,32.20
2024-01-15T03:55:56.106Z,36.87
2024-01-15T03:58:23.006Z,32.40
2024-01-15T04:00:50.089Z,28.77
2024-01-15T04:03:17.303Z,32.37
2024-01-15T04:05:44.238Z,32.17
2024-01-15T04:08:11.009Z,31.07
2024-01-15T04:10:37.679Z,30.63
2024-01-15T04:13:04.744Z,30.13
2024-01-15T04:15:31.608Z,28.93
2024-01-15T04:17:58.330Z,28.73
2024-01-15T04:20:25.818Z,29.50
2024-01-15T04:22:53.463Z,28.97
2024-01-15T04:25:20.271Z,34.67
2024-01-15T04:27:47.264Z,26.67
2024-01-15T04:30:14.820Z,30.57
2024-01-15T04:32:41.771Z,27.83
2024-01-15T04:35:08.762Z,32.07
2024-01-15T04:37:35.571Z,31.50
2024-01-15T04:40:04.938Z,30.30
2024-01-15T04:42:31.604Z,27.87
2024-01-15T04:44:58.268Z,27.60
2024-01-15T04:47:25.039Z,29.47
2024-01-15T04:49:52.228Z,30.20
2024-01-15T04:52:19.010Z,29.70
2024-01-15T04:54:45.928Z,28.37
2024-01-15T04:57:12.785Z,27.33
2024-01-15T04:59:40.678Z,27.67
2024-01-15T05:02:07.512Z,28.67
2024-01-15T05:04:34.385Z,27.97
2024-01-15T05:07:01.347Z,25.63
2024-01-15T05:09:30.940Z,33.47
2024-01-15T05:11:59.490Z,27.70
2024-01-15T05:14:26.149Z,29.10
2024-01-15T05:16:52.960Z,25.17
2024-01-15T05:19:20.008Z,29.37
2024-01-15T05:21:47.009Z,29.63
2024-01-15T05:24:13.769Z,27.57
2024-01-15T05:26:40.535Z,25.27
2024-01-15T05:29:07.213Z,25.63
2024-01-15T05:31:34.207Z,27.93
2024-01-15T05:34:01.151Z,28.30
2024-01-15T05:36:28.047Z,27.73
2024-01-15T05:38:54.808Z,28.77
2024-01-15T05:41:21.525Z,26.40
2024-01-15T05:43:48.330Z,28.90
2024-01-15T05:46:16.548Z,29.40
2024-01-15T05:48:43.491Z,26.67
2024-01-15T05:51:11.395Z,30.03
2024-01-15T05:53:41.307Z,32.03
2024-01-15T05:56:08.100Z,34.03
2024-01-15T05:58:34.864Z,31.60
2024-01-15T06:01:01.819Z,36.60
2024-01-15T06:03:28.727Z,39.27
2024-01-15T06:05:55.616Z,32.00
2024-01-15T06:08:22.340Z,29.33
2024-01-15T06:10:49.133Z,31.07
2024-01-15T06:13:16.177Z,34.53
2024-01-15T06:15:43.195Z,37.20
2024-01-15T06:18:10.183Z,31.67
2024-01-15T06:20:36.941Z,29.07
2024-01-15T06:23:03.808Z,27.33
2024-01-15T06:25:30.782Z,29.40
2024-01-15T06:27:57.570Z,31.60
2024-01-15T06:30:24.533Z,30.93
2024-01-15T06:32:51.728Z,26.00
2024-01-15T06:35:21.098Z,29.57
2024-01-15T06:37:49.473Z,27.50
2024-01-15T06:40:16.174Z,23.23
2024-01-15T06:42:42.923Z,26.83
2024-01-15T06:45:10.026Z,28.13
2024-01-15T06:47:36.846Z,26.27
2024-01-15T06:50:03.774Z,28.57
2024-01-15T06:52:30.508Z,29.20
2024-01-15T06:54:57.276Z,29.40
2024-01-15T06:57:24.244Z,26.87
2024-01-15T06:59:51.004Z,23.90
2024-01-15T07:02:17.741Z,24.07
2024-01-15T07:04:44.414Z,25.47
2024-01-15T07:07:11.248Z,25.63
2024-01-15T07:09:37.994Z,27.20
2024-01-15T07:12:05.234Z,29.80
2024-01-15T07:14:31.997Z,25.97
2024-01-15T07:16:58.783Z,27.50
2024-01-15T07:19:26.342Z,27.57
2024-01-15T07:21:56.798Z,29.90
2024-01-15T07:24:24.086Z,26.77
2024-01-15T07:26:50.779Z,24.23
2024-01-15T07:29:17.437Z,26.00
2024-01-15T07:31:52.696Z,23.90
2024-01-15T07:34:20.035Z,27.37
2024-01-15T07:36:47.043Z,28.40
2024-01-15T07:39:14.843Z,22.57
2024-01-15T07:41:41.612Z,29.43
2024-01-15T07:44:08.417Z,28.07
2024-01-15T07:46:35.148Z,26.60
2024-01-15T07:49:02.068Z,25.03
2024-01-15T07:51:28.963Z,24.90
2024-01-15T07:53:58.431Z,26.37
2024-01-15T07:56:25.260Z,29.23
2024-01-15T07:58:52.054Z,31.03
2024-01-15T08:01:18.941Z,22.93
2024-01-15T08:03:45.879Z,25.03
2024-01-15T08:06:13.012Z,29.97
2024-01-15T08:08:39.805Z,24.97
2024-01-15T08:11:06.495Z,27.63
2024-01-15T08:13:33.494Z,27.67
2024-01-15T08:16:00.390Z,29.03
2024-01-15T08:18:27.437Z,31.03
2024-01-15T08:20:55.018Z,28.77
2024-01-15T08:23:22.412Z,27.30
2024-01-15T08:25:49.113Z,25.83
2024-01-15T08:28:16.001Z,29.40
2024-01-15T08:30:42.960Z,25.00
2024-01-15T08:33:14.872Z,25.50
2024-01-15T08:35:48.389Z,27.27
2024-01-15T08:38:15.237Z,26.43
2024-01-15T08:40:41.978Z,30.60
2024-01-15T08:43:08.788Z,26.23
2024-01-15T08:45:35.686Z,23.47
2024-01-15T08:48:03.462Z,23.20
2024-01-15T08:50:31.015Z,23.57
2024-01-15T08:52:57.725Z,22.83
2024-01-15T08:55:24.507Z,20.93
2024-01-15T08:57:51.755Z,21.97
2024-01-15T09:00:18.789Z,21.80
2024-01-15T09:02:45.944Z,21.93
2024-01-15T09:05:12.941Z,22.27
2024-01-15T09:07:39.804Z,23.97
2024-01-15T09:10:07.613Z,24.07
2024-01-15T09:12:34.332Z,21.57
2024-01-15T09:15:01.179Z,23.60
2024-01-15T09:17:29.208Z,20.33
2024-01-15T09:19:56.321Z,24.30
2024-01-15T09:22:23.065Z,22.17
2024-01-15T09:24:49.827Z,22.97
2024-01-15T09:27:16.733Z,19.40
2024-01-15T09:29:46.448Z,21.17
2024-01-15T09:32:13.649Z,23.50
2024-01-15T09:34:40.475Z,21.67
2024-01-15T09:37:08.090Z,23.60
2024-01-15T09:39:34.897Z,23.23
2024-01-15T09:42:03.254Z,22.40
2024-01-15T09:44:30.546Z,22.83
2024-01-15T09:46:58.265Z,20.77
2024-01-15T09:49:25.452Z,18.43
2024-01-15T09:51:59.519Z,22.20
2024-01-15T09:54:34.274Z,21.23
2024-01-15T09:57:01.910Z,22.27
2024-01-15T09:59:29.624Z,24.47
2024-01-15T10:01:58.145Z,22.57
2024-01-15T10:04:25.636Z,25.10
2024-01-15T10:06:53.112Z,21.93
2024-01-15T10:09:19.980Z,21.13
2024-01-15T10:11:46.822Z,24.07
2024-01-15T10:14:14.152Z,21.57
2024-01-15T10:16:41.507Z,24.07
2024-01-15T10:19:09.522Z,21.70
2024-01-15T10:21:37.833Z,27.03
2024-01-15T10:24:05.820Z,23.57
2024-01-15T10:26:34.904Z,22.77
2024-01-15T10:29:01.765Z,18.47
2024-01-15T10:31:30.918Z,26.33
2024-01-15T10:34:13.241Z,22.63
2024-01-15T10:36:48.859Z,23.83
2024-01-15T10:39:15.799Z,20.63
2024-01-15T10:41:42.604Z,23.33
2024-01-15T10:44:09.417Z,23.33
2024-01-15T10:46:36.678Z,19.70
2024-01-15T10:49:03.785Z,21.57
2024-01-15T10:51:30.864Z,22.00
2024-01-15T10:54:00.277Z,21.57
2024-01-15T10:56:28.026Z,20.43
2024-01-15T10:58:58.866Z,21.63
2024-01-15T11:01:30.560Z,17.33
2024-01-15T11:03:58.659Z,18.83
2024-01-15T11:06:28.902Z,17.00
2024-01-15T11:08:56.670Z,15.30
2024-01-15T11:11:24.423Z,15.17
2024-01-15T11:13:53.439Z,13.40
2024-01-15T11:16:20.250Z,15.20
2024-01-15T11:18:59.306Z,15.43
2024-01-15T11:21:28.257Z,13.40
2024-01-15T11:24:00.701Z,14.50
2024-01-15T11:26:39.727Z,13.83
2024-01-15T11:29:08.671Z,11.80
2024-01-15T11:31:41.921Z,14.00
2024-01-15T11:34:12.106Z,13.57
2024-01-15T11:36:53.994Z,13.73
2024-01-15T11:39:35.890Z,12.80
2024-01-15T11:42:04.576Z,17.73
2024-01-15T11:44:31.638Z,10.63
2024-01-15T11:47:06.370Z,12.60
2024-01-15T11:49:45.405Z,13.13
2024-01-15T11:52:12.969Z,10.60
2024-01-15T11:54:41.145Z,11.00
2024-01-15T11:57:16.286Z,10.60
2024-01-15T11:59:44.214Z,11.03
2024-01-15T12:02:14.007Z,10.97
2024-01-15T12:04:41.242Z,9.77
2024-01-15T12:07:08.133Z,8.73
2024-01-15T12:09:35.020Z,9.87
2024-01-15T12:12:08.804Z,9.53
2024-01-15T12:14:38.694Z,9.23
2024-01-15T12:17:06.248Z,10.87
2024-01-15T12:19:33.329Z,10.50
2024-01-15T12:22:00.076Z,9.97
2024-01-15T12:24:26.808Z,11.70
2024-01-15T12:26:53.610Z,10.37
2024-01-15T12:29:20.687Z,11.40
2024-01-15T12:31:50.554Z,9.63
2024-01-15T12:34:18.779Z,12.43
2024-01-15T12:36:48.079Z,11.50
2024-01-15T12:39:14.992Z,10.83
2024-01-15T12:41:41.985Z,10.87
2024-01-15T12:44:09.439Z,10.90
2024-01-15T12:46:36.180Z,12.03
2024-01-15T12:49:05.498Z,10.20
2024-01-15T12:51:35.923Z,9.37
2024-01-15T12:54:02.676Z,9.83
2024-01-15T12:56:29.368Z,9.73
2024-01-15T12:58:56.238Z,11.67
2024-01-15T13:01:23.182Z,10.53
2024-01-15T13:03:50.182Z,10.20
2024-01-15T13:06:18.064Z,10.20
2024-01-15T13:08:44.771Z,9.73
2024-01-15T13:11:11.572Z,9.33
2024-01-15T13:13:38.747Z,13.03
2024-01-15T13:16:05.853Z,8.70
2024-01-15T13:18:32.872Z,9.43
2024-01-15T13:20:59.774Z,10.13
2024-01-15T13:23:26.551Z,11.30
2024-01-15T13:25:53.357Z,10.37
2024-01-15T13:28:20.089Z,10.90
2024-01-15T13:30:46.855Z,10.33
2024-01-15T13:33:14.539Z,12.60
2024-01-15T13:35:41.358Z,9.30
2024-01-15T13:38:09.917Z,9.90
2024-01-15T13:40:36.601Z,9.10
2024-01-15T13:43:03.758Z,9.43
2024-01-15T13:45:31.012Z,11.30
2024-01-15T13:47:57.779Z,7.57
2024-01-15T13:50:26.079Z,10.10
2024-01-15T13:52:53.032Z,8.73
2024-01-15T13:55:19.764Z,8.17
2024-01-15T13:57:46.491Z,8.03
2024-01-15T14:00:14.324Z,7.73
2024-01-15T14:02:41.402Z,7.67
2024-01-15T14:05:08.121Z,8.70
2024-01-15T14:07:35.148Z,8.97
2024-01-15T14:10:02.084Z,7.50
2024-01-15T14:12:28.838Z,9.10
2024-01-15T14:14:55.556Z,6.73
2024-01-15T14:17:22.384Z,8.03
2024-01-15T14:19:49.151Z,7.57
2024-01-15T14:22:15.841Z,8.03
2024-01-15T14:24:42.545Z,9.07
2024-01-15T14:27:10.090Z,7.63
2024-01-15T14:29:36.990Z,7.73
2024-01-15T14:32:04.136Z,7.23
2024-01-15T14:34:31.074Z,9.40
2024-01-15T14:36:58.228Z,6.53
2024-01-15T14:39:25.563Z,9.13
2024-01-15T14:41:52.724Z,8.10
2024-01-15T14:44:19.552Z,5.97
2024-01-15T14:46:46.993Z,8.30
2024-01-15T14:49:15.736Z,9.37
2024-01-15T14:51:43.102Z,5.87
2024-01-15T14:54:10.167Z,8.73
2024-01-15T14:56:36.989Z,7.47
2024-01-15T14:59:03.912Z,5.13
2024-01-15T15:01:31.192Z,8.30
2024-01-15T15:03:58.123Z,5.97
2024-01-15T15:06:28.647Z,7.60
2024-01-15T15:08:58.919Z,6.10
2024-01-15T15:11:27.095Z,5.87
2024-01-15T15:13:53.839Z,6.63
2024-01-15T15:16:20.720Z,6.97
2024-01-15T15:18:48.564Z,8.13
2024-01-15T15:21:15.661Z,5.10
2024-01-15T15:23:43.780Z,6.07
2024-01-15T15:26:10.722Z,5.40
2024-01-15T15:28:38.072Z,7.43
2024-01-15T15:31:14.081Z,6.13
2024-01-15T15:33:41.245Z,9.97
2024-01-15T15:36:08.270Z,7.87
2024-01-15T15:38:35.508Z,6.03
2024-01-15T15:41:02.763Z,9.27
2024-01-15T15:43:30.305Z,7.07
2024-01-15T15:46:01.209Z,5.73
2024-01-15T15:48:28.250Z,8.50
2024-01-15T15:50:56.568Z,6.20
2024-01-15T15:53:23.871Z,8.33
2024-01-15T15:55:50.638Z,5.77
2024-01-15T15:58:17.441Z,7.50
2024-01-15T16:00:44.330Z,4.43
2024-01-15T16:03:11.039Z,4.87
2024-01-15T16:05:45.398Z,6.27
2024-01-15T16:08:18.803Z,6.47
2024-01-15T16:10:47.377Z,5.47
2024-01-15T16:13:14.944Z,5.70
2024-01-15T16:15:41.760Z,4.33
2024-01-15T16:23:18.996Z,4.80
2024-01-15T16:23:33.392Z,5.07
2024-01-15T16:24:08.027Z,5.93
2024-01-15T16:26:28.962Z,6.17
2024-01-15T16:28:58.024Z,4.17
2024-01-15T16:31:25.143Z,7.33
2024-01-15T16:33:55.564Z,7.97
2024-01-15T16:36:26.169Z,4.13
2024-01-15T16:38:53.357Z,7.97
2024-01-15T16:41:20.201Z,5.23
2024-01-15T16:43:47.453Z,5.73
2024-01-15T16:46:14.185Z,5.03
2024-01-15T16:48:40.947Z,3.60
2024-01-15T16:51:07.881Z,6.10
2024-01-15T16:53:34.623Z,3.37
2024-01-15T16:56:01.451Z,5.37
2024-01-15T16:58:28.089Z,6.40
2024-01-15T17:00:54.969Z,4.13
2024-01-15T17:03:21.682Z,5.67
2024-01-15T17:05:48.431Z,3.50
2024-01-15T17:08:15.185Z,7.97
2024-01-15T17:10:42.044Z,7.97
2024-01-15T17:13:10.066Z,5.30
2024-01-15T17:15:38.375Z,4.47
2024-01-15T17:18:06.081Z,4.20
2024-01-15T17:20:32.979Z,7.03
2024-01-15T17:22:59.936Z,5.20
2024-01-15T17:25:26.878Z,5.27
2024-01-15T17:27:53.720Z,5.03
2024-01-15T17:30:20.444Z,8.23
2024-01-15T17:32:47.264Z,5.53
2024-01-15T17:35:14.302Z,4.60
2024-01-15T17:37:41.096Z,3.80
2024-01-15T17:40:08.592Z,3.40
2024-01-15T17:42:35.310Z,5.40
2024-01-15T17:45:02.174Z,2.87
2024-01-15T17:47:28.941Z,7.17
2024-01-15T17:49:55.722Z,7.90
2024-01-15T17:52:24.567Z,4.83
2024-01-15T17:54:51.574Z,4.40
2024-01-15T17:57:18.255Z,4.07
2024-01-15T17:59:45.076Z,4.03
2024-01-15T18:02:12.491Z,5.00
2024-01-15T18:04:39.343Z,4.70
2024-01-15T18:07:06.006Z,4.33
2024-01-15T18:09:32.740Z,3.33
2024-01-15T18:12:01.699Z,4.73
2024-01-15T18:14:28.918Z,4.33
2024-01-15T18:16:55.801Z,6.07
2024-01-15T18:19:23.025Z,3.53
2024-01-15T18:21:49.717Z,3.87
2024-01-15T18:24:16.433Z,6.63
2024-01-15T18:26:43.199Z,4.80
2024-01-15T18:29:10.032Z,2.90
2024-01-15T18:31:37.108Z,3.63
2024-01-15T18:34:04.069Z,3.80
2024-01-15T18:36:30.979Z,4.63
2024-01-15T18:38:59.908Z,2.87
2024-01-15T18:41:26.643Z,4.37
2024-01-15T18:43:53.487Z,5.93
2024-01-15T18:46:20.242Z,4.13
2024-01-15T18:48:47.202Z,4.03
2024-01-15T18:51:22.210Z,3.83
2024-01-15T18:53:49.923Z,3.70
2024-01-15T18:56:17.234Z,3.93
2024-01-15T18:58:44.172Z,3.10
2024-01-15T19:01:12.226Z,3.37
2024-01-15T19:03:39.266Z,4.60
2024-01-15T19:06:07.048Z,3.40
2024-01-15T19:08:34.527Z,4.83
2024-01-15T19:11:01.298Z,5.63
2024-01-15T19:13:28.202Z,5.13
2024-01-15T19:15:54.994Z,3.77
2024-01-15T19:18:21.889Z,2.93
2024-01-15T19:20:48.785Z,3.90
2024-01-15T19:23:15.620Z,5.67
2024-01-15T19:25:42.852Z,2.70
2024-01-15T19:28:10.660Z,2.83
2024-01-15T19:30:37.401Z,3.27
2024-01-15T19:33:04.830Z,3.97
2024-01-15T19:35:31.857Z,5.00
2024-01-15T19:37:58.780Z,4.40
2024-01-15T19:40:26.722Z,11.30
2024-01-15T19:42:53.809Z,5.10
2024-01-15T19:45:20.536Z,2.77
2024-01-15T19:47:47.391Z,2.67
2024-01-15T19:50:14.208Z,2.60
2024-01-15T19:52:41.332Z,2.97
2024-01-15T19:55:08.302Z,3.90
2024-01-15T19:57:35.209Z,3.50
2024-01-15T20:00:01.911Z,3.37
2024-01-15T20:02:28.764Z,4.53
2024-01-15T20:04:55.701Z,3.73
2024-01-15T20:07:22.407Z,4.33
2024-01-15T20:09:49.076Z,3.43
2024-01-15T20:12:15.796Z,5.33
2024-01-15T20:14:42.442Z,4.73
2024-01-15T20:17:09.217Z,5.20
2024-01-15T20:19:36.117Z,4.53
2024-01-15T20:22:03.241Z,6.03
2024-01-15T20:24:29.934Z,5.40
2024-01-15T20:26:56.642Z,3.00
2024-01-15T20:29:23.388Z,4.93
2024-01-15T20:31:50.654Z,6.10
2024-01-15T20:34:17.532Z,5.23
2024-01-15T20:36:44.316Z,4.60
2024-01-15T20:39:11.055Z,3.70
2024-01-15T20:41:37.821Z,3.13
2024-01-15T20:44:04.719Z,5.70
2024-01-15T20:46:31.601Z,5.87
2024-01-15T20:48:58.678Z,4.67
2024-01-15T20:51:25.497Z,4.10
2024-01-15T20:53:52.354Z,3.93
2024-01-15T20:56:19.068Z,3.67
2024-01-15T20:58:45.904Z,6.33
2024-01-15T21:01:12.721Z,5.50
2024-01-15T21:03:39.848Z,3.33
2024-01-15T21:06:07.025Z,3.00
2024-01-15T21:08:34.079Z,7.60
2024-01-15T21:11:05.031Z,4.00
2024-01-15T21:13:34.117Z,5.13
2024-01-15T21:16:01.007Z,4.37
2024-01-15T21:18:27.911Z,2.47
2024-01-15T21:20:56.114Z,4.23
2024-01-15T21:23:22.978Z,5.53
2024-01-15T21:25:49.854Z,4.43
2024-01-15T21:28:17.910Z,3.83
2024-01-15T21:30:44.898Z,3.97
2024-01-15T21:33:12.286Z,3.80
2024-01-15T21:35:39.487Z,6.17
2024-01-15T21:38:06.238Z,4.97
2024-01-15T21:40:33.837Z,10.73
2024-01-15T21:43:00.596Z,3.60
2024-01-15T21:45:28.065Z,3.93
2024-01-15T21:47:55.073Z,4.50
2024-01-15T21:50:22.067Z,4.43
2024-01-15T21:52:49.021Z,3.87
2024-01-15T21:55:18.705Z,5.53
2024-01-15T21:57:45.705Z,3.47
2024-01-15T22:00:13.790Z,3.73
2024-01-15T22:02:42.432Z,8.47
2024-01-15T22:05:10.493Z,3.30
2024-01-15T22:07:41.121Z,4.13
2024-01-15T22:10:08.880Z,3.33
2024-01-15T22:12:35.642Z,3.60
2024-01-15T22:15:02.753Z,3.23
2024-01-15T22:17:30.032Z,5.30
2024-01-15T22:19:56.840Z,3.30
2024-01-15T22:22:23.611Z,3.03
2024-01-15T22:24:50.473Z,3.30
2024-01-15T22:27:17.224Z,5.63
2024-01-15T22:29:44.157Z,3.97
2024-01-15T22:32:11.059Z,4.47
2024-01-15T22:34:37.844Z,3.60
2024-01-15T22:37:06.001Z,3.53
2024-01-15T22:39:32.877Z,3.47
2024-01-15T22:42:00.503Z,3.23
2024-01-15T22:44:27.456Z,2.67
2024-01-15T22:46:54.420Z,4.73
2024-01-15T22:49:21.188Z,4.27
2024-01-15T22:51:47.973Z,2.50
2024-01-15T22:54:14.668Z,3.33
2024-01-15T22:56:41.489Z,4.47
2024-01-15T22:59:08.887Z,4.43
2024-01-15T23:01:35.631Z,3.90
2024-01-15T23:04:02.475Z,4.50
2024-01-15T23:06:29.206Z,5.00
2024-01-15T23:08:56.501Z,3.97
2024-01-15T23:11:24.355Z,5.13
2024-01-15T23:13:51.233Z,7.07
2024-01-15T23:16:17.935Z,4.53
2024-01-15T23:18:45.222Z,5.20
2024-01-15T23:21:12.153Z,5.03
2024-01-15T23:23:39.013Z,5.80
2024-01-15T23:26:06.059Z,5.27
2024-01-15T23:28:33.708Z,6.87
2024-01-15T23:31:01.838Z,4.53
2024-01-15T23:33:29.648Z,3.90
2024-01-15T23:35:57.473Z,5.43
2024-01-15T23:38:24.582Z,7.50
2024-01-15T23:40:51.693Z,5.30
2024-01-15T23:43:18.742Z,4.47
2024-01-15T23:45:47.930Z,6.90
2024-01-15T23:48:17.874Z,4.43
2024-01-15T23:50:44.859Z,4.10
2024-01-15T23:53:11.728Z,7.77
2024-01-15T23:55:38.464Z,4.27
2024-01-15T23:58:05.338Z,4.07
